Time;durP1;ratioP1;P1;durP2;ratioP2;P2;SDS_P1;SDS_P2;PMS_P1;PMS_P2;Temp;Humidity;BMP_temperature;BMP_pressure;BME280_temperature;BME280_humidity;BME280_pressure;Samples;Min_cycle;Max_cycle;Signal;HPM_P1;HPM_P2
2022/10/07 00:01:14;;;;;;;18.60;5.68;;;;;;;9.73;83.11;102697.38;5049515;28;20037;-58
2022/10/07 00:03:40;;;;;;;22.90;6.47;;;;;;;9.73;82.86;102697.38;5045145;28;20037;-58
2022/10/07 00:06:15;;;;;;;19.05;5.85;;;;;;;9.70;83.25;102697.56;5047071;28;20041;-58
2022/10/07 00:08:42;;;;;;;18.42;5.25;;;;;;;9.67;83.46;102695.16;5040199;28;20058;-60
2022/10/07 00:11:10;;;;;;;15.77;5.72;;;;;;;9.66;83.39;102682.84;5041897;28;20461;-59
2022/10/07 00:13:37;;;;;;;18.58;5.55;;;;;;;9.65;83.03;102681.16;5050087;28;20042;-58
2022/10/07 00:16:08;;;;;;;18.98;5.63;;;;;;;9.62;84.00;102679.56;5042398;28;20033;-58
2022/10/07 00:18:35;;;;;;;15.98;5.30;;;;;;;9.59;83.21;102684.25;5038696;28;20689;-58
2022/10/07 00:21:02;;;;;;;19.13;5.53;;;;;;;9.51;83.88;102677.69;5048018;28;20476;-58
2022/10/07 00:23:28;;;;;;;17.85;5.15;;;;;;;9.54;84.26;102682.75;5041960;28;20040;-59
2022/10/07 00:25:53;;;;;;;19.77;5.47;;;;;;;9.50;83.82;102678.66;5042096;28;20029;-58
2022/10/07 00:28:18;;;;;;;19.15;5.50;;;;;;;9.52;83.34;102679.38;5048814;28;20106;-58
2022/10/07 00:30:43;;;;;;;15.07;5.55;;;;;;;9.55;83.76;102676.53;5040600;28;20032;-58
2022/10/07 00:33:09;;;;;;;17.80;5.80;;;;;;;9.49;84.34;102679.63;5049701;28;20029;-57
2022/10/07 00:35:34;;;;;;;18.13;5.55;;;;;;;9.47;84.19;102670.09;5039321;28;20420;-58
2022/10/07 00:38:00;;;;;;;20.55;5.18;;;;;;;9.42;84.34;102665.97;5038410;28;20029;-58
2022/10/07 00:40:25;;;;;;;15.32;5.30;;;;;;;9.41;84.14;102666.91;5047363;28;20446;-58
2022/10/07 00:42:50;;;;;;;17.48;5.30;;;;;;;9.40;83.79;102664.38;5050615;28;20063;-59
2022/10/07 00:45:18;;;;;;;18.13;5.30;;;;;;;9.40;84.71;102664.38;5045396;28;20025;-58
2022/10/07 00:47:46;;;;;;;19.23;5.00;;;;;;;9.38;84.83;102661.00;5041238;28;20448;-58
2022/10/07 00:50:18;;;;;;;22.20;5.68;;;;;;;9.36;85.54;102657.59;5041840;28;20033;-59
2022/10/07 00:52:49;;;;;;;17.83;5.50;;;;;;;9.33;85.13;102663.13;5038953;28;20473;-57
2022/10/07 00:55:22;;;;;;;17.98;5.70;;;;;;;9.33;85.22;102657.81;5041198;28;20103;-58
2022/10/07 00:57:49;;;;;;;16.65;5.32;;;;;;;9.29;85.22;102651.91;5047196;28;20029;-59
2022/10/07 01:00:15;;;;;;;14.77;5.22;;;;;;;9.29;84.92;102642.13;5046594;28;20029;-58
2022/10/07 01:02:40;;;;;;;18.58;5.43;;;;;;;9.29;85.52;102651.91;5045780;28;20074;-57
2022/10/07 01:05:08;;;;;;;20.17;5.38;;;;;;;9.25;84.93;102647.75;5045110;28;20671;-58
2022/10/07 01:07:34;;;;;;;16.42;5.50;;;;;;;9.26;85.97;102642.38;5042212;28;20460;-58
2022/10/07 01:10:00;;;;;;;13.43;5.20;;;;;;;9.25;85.19;102640.69;5047445;28;20036;-60
2022/10/07 01:12:54;;;;;;;12.85;5.28;;;;;;;9.23;85.52;102639.94;5046489;28;20350;-59
2022/10/07 01:15:35;;;;;;;24.27;5.90;;;;;;;9.20;85.03;102641.94;5039781;28;20530;-58
2022/10/07 01:18:12;;;;;;;17.17;5.40;;;;;;;9.20;85.48;102629.56;5041872;28;20048;-58
2022/10/07 01:21:32;;;;;;;19.70;5.57;;;;;;;9.25;85.72;102630.09;5039945;28;20022;-60
2022/10/07 01:24:16;;;;;;;18.80;5.20;;;;;;;9.17;86.25;102621.81;5007483;28;20038;-56
2022/10/07 01:26:44;;;;;;;;;;;;;;;9.31;84.21;102622.69;5037554;28;20025;-60
2022/10/07 01:29:27;;;;;;;16.95;5.25;;;;;;;9.14;85.64;102622.06;5046974;28;19920;-58
2022/10/07 01:31:57;;;;;;;;;;;;;;;9.26;84.43;102621.19;5037192;28;20087;-58
2022/10/07 01:34:25;;;;;;;19.55;5.38;;;;;;;9.15;85.90;102613.16;5046210;28;19999;-58
2022/10/07 01:36:54;;;;;;;17.77;5.70;;;;;;;9.06;85.89;102601.41;5033387;28;20045;-57
2022/10/07 01:39:26;;;;;;;18.30;5.72;;;;;;;9.05;85.89;102596.22;5044660;28;20096;-58
2022/10/07 01:41:52;;;;;;;20.88;5.75;;;;;;;9.02;85.81;102592.84;5039069;28;20036;-58
2022/10/07 01:44:17;;;;;;;16.92;5.30;;;;;;;9.01;86.02;102596.47;5048416;28;20040;-59
2022/10/07 01:46:43;;;;;;;21.02;5.53;;;;;;;8.94;85.80;102583.75;5037876;28;20052;-58
2022/10/07 01:49:08;;;;;;;18.75;5.38;;;;;;;8.93;86.75;102588.19;5046803;28;20033;-58
2022/10/07 01:51:37;;;;;;;22.58;5.85;;;;;;;8.89;86.64;102576.16;5038001;28;20045;-58
2022/10/07 01:54:26;;;;;;;20.83;5.60;;;;;;;8.83;87.54;102560.72;5046390;28;20066;-59
2022/10/07 01:57:03;;;;;;;22.27;5.43;;;;;;;8.88;86.73;102563.84;5036025;28;21709;-58
2022/10/07 01:59:53;;;;;;;20.73;5.88;;;;;;;8.90;86.85;102559.31;5044601;28;20471;-58
2022/10/07 02:02:34;;;;;;;24.00;6.20;;;;;;;8.86;87.14;102555.19;5037680;28;20115;-59
2022/10/07 02:05:20;;;;;;;19.30;6.03;;;;;;;8.82;87.68;102545.75;5048242;28;20794;-57
2022/10/07 02:08:00;;;;;;;20.88;6.05;;;;;;;8.84;86.76;102546.53;5034233;28;20375;-59
2022/10/07 02:10:37;;;;;;;19.55;6.07;;;;;;;8.85;87.96;102553.50;5039753;28;20061;-58
2022/10/07 02:13:05;;;;;;;18.55;5.78;;;;;;;8.85;87.21;102548.22;5038812;28;20033;-58
2022/10/07 02:15:43;;;;;;;21.05;5.97;;;;;;;8.79;87.52;102554.75;5035666;28;20071;-59
2022/10/07 02:18:14;;;;;;;21.10;5.80;;;;;;;8.73;87.16;102544.59;5043737;28;20029;-58
2022/10/07 02:20:43;;;;;;;21.10;6.15;;;;;;;8.73;87.64;102534.88;5035724;28;20480;-58
2022/10/07 02:23:12;;;;;;;21.27;6.20;;;;;;;8.71;87.68;102536.81;5036416;28;20036;-58
2022/10/07 02:25:41;;;;;;;19.17;6.13;;;;;;;8.72;87.90;102543.78;5045087;28;20083;-58
2022/10/07 02:28:10;;;;;;;21.13;6.20;;;;;;;8.73;87.82;102531.38;5043868;28;20033;-58
2022/10/07 02:30:36;;;;;;;18.88;5.93;;;;;;;8.70;87.75;102529.84;5036916;28;20033;-58
2022/10/07 02:33:05;;;;;;;22.23;6.30;;;;;;;8.66;87.49;102523.06;5040403;28;20035;-58
2022/10/07 02:35:42;;;;;;;22.05;6.40;;;;;;;8.69;87.65;102522.00;5041011;28;20618;-59
2022/10/07 02:38:11;;;;;;;21.60;6.03;;;;;;;8.63;87.88;102512.69;5041260;28;20048;-58
2022/10/07 02:40:45;;;;;;;24.27;6.43;;;;;;;8.65;88.17;102513.44;5042035;28;20137;-58
2022/10/07 02:43:23;;;;;;;20.17;5.90;;;;;;;8.61;88.25;102514.59;5044565;28;20038;-58
2022/10/07 02:45:56;;;;;;;24.10;6.72;;;;;;;8.57;87.59;102513.97;5042360;28;20036;-58
2022/10/07 02:48:27;;;;;;;20.20;6.82;;;;;;;8.53;88.12;102509.00;5034493;28;20067;-58
2022/10/07 02:50:59;;;;;;;18.52;6.13;;;;;;;8.56;87.98;102501.69;5036226;28;20040;-59
2022/10/07 02:53:27;;;;;;;22.10;6.40;;;;;;;8.56;87.86;102501.69;5041622;28;20508;-58
2022/10/07 02:55:55;;;;;;;20.60;6.28;;;;;;;8.58;88.01;102498.94;5035057;28;20037;-58
2022/10/07 02:58:25;;;;;;;22.33;6.68;;;;;;;8.59;87.89;102492.72;5044620;28;20112;-57
2022/10/07 03:00:56;;;;;;;19.35;6.13;;;;;;;8.56;87.66;102495.56;5037069;28;20091;-58
2022/10/07 03:03:23;;;;;;;20.77;5.88;;;;;;;8.56;88.20;102495.56;5033365;28;20057;-58
2022/10/07 03:05:49;;;;;;;19.45;6.43;;;;;;;8.55;88.01;102493.88;5032645;28;20117;-60
2022/10/07 03:08:15;;;;;;;19.13;6.13;;;;;;;8.48;88.42;102486.34;5036652;28;20118;-58
2022/10/07 03:10:40;;;;;;;18.45;5.93;;;;;;;8.45;88.05;102483.88;5035905;28;20045;-58
2022/10/07 03:13:06;;;;;;;18.73;5.90;;;;;;;8.44;88.49;102484.84;5044044;28;20041;-58
2022/10/07 03:15:34;;;;;;;21.48;6.13;;;;;;;8.47;88.32;102484.66;5039707;28;20048;-58
2022/10/07 03:17:59;;;;;;;20.52;6.07;;;;;;;8.41;88.36;102478.94;5033620;28;20051;-58
2022/10/07 03:20:25;;;;;;;19.13;6.18;;;;;;;8.43;88.83;102477.88;5036009;28;20733;-59
2022/10/07 03:22:50;;;;;;;17.98;5.90;;;;;;;8.43;88.58;102477.88;5041661;28;20104;-58
2022/10/07 03:25:15;;;;;;;21.25;6.38;;;;;;;8.41;88.52;102479.78;5035323;28;20102;-59
2022/10/07 03:27:41;;;;;;;18.52;6.03;;;;;;;8.40;88.39;102470.16;5037022;28;20033;-58
2022/10/07 03:30:08;;;;;;;17.33;5.60;;;;;;;8.33;88.46;102474.16;5040448;28;20031;-59
2022/10/07 03:32:33;;;;;;;17.92;5.97;;;;;;;8.33;88.69;102464.44;5039213;28;20036;-59
2022/10/07 03:34:59;;;;;;;19.40;5.88;;;;;;;8.33;88.87;102474.16;5038077;28;20044;-58
2022/10/07 03:37:25;;;;;;;20.48;6.43;;;;;;;8.34;88.59;102465.31;5030607;28;20033;-59
2022/10/07 03:39:52;;;;;;;19.38;6.38;;;;;;;8.30;88.16;102471.75;5043162;28;20045;-59
2022/10/07 03:42:18;;;;;;;16.98;5.57;;;;;;;8.30;88.79;102463.81;5039642;28;20082;-57
2022/10/07 03:44:44;;;;;;;19.52;5.78;;;;;;;8.27;88.52;102464.00;5043202;28;20028;-57
2022/10/07 03:47:09;;;;;;;21.65;6.57;;;;;;;8.26;88.30;102468.47;5049452;28;20040;-57
2022/10/07 03:49:35;;;;;;;20.60;5.63;;;;;;;8.28;88.95;102455.13;5035363;28;20037;-58
2022/10/07 03:52:01;;;;;;;18.77;6.05;;;;;;;8.25;88.11;102460.66;5037758;28;20083;-58
2022/10/07 03:54:27;;;;;;;23.70;6.47;;;;;;;8.25;88.79;102455.34;5048470;28;20531;-59
2022/10/07 03:56:52;;;;;;;24.65;6.43;;;;;;;8.24;88.42;102453.69;5037463;28;20033;-59
2022/10/07 03:59:18;;;;;;;22.30;6.07;;;;;;;8.26;88.59;102451.75;5037513;28;20053;-58
2022/10/07 04:01:43;;;;;;;20.23;6.20;;;;;;;8.20;88.63;102460.97;5038595;28;20030;-58
2022/10/07 04:04:09;;;;;;;18.95;6.28;;;;;;;8.23;88.62;102449.34;5036291;28;20025;-59
2022/10/07 04:06:34;;;;;;;19.92;6.30;;;;;;;8.25;88.41;102450.06;5036318;28;20033;-58
2022/10/07 04:09:00;;;;;;;17.92;6.13;;;;;;;8.23;88.03;102452.81;5036957;28;20090;-58
2022/10/07 04:11:26;;;;;;;22.98;6.50;;;;;;;8.18;88.49;102445.22;5036776;28;20116;-58
2022/10/07 04:13:51;;;;;;;21.63;6.40;;;;;;;8.12;88.85;102445.63;5039318;28;20037;-58
2022/10/07 04:16:18;;;;;;;21.00;6.95;;;;;;;8.12;89.04;102450.91;5037425;28;20030;-57
2022/10/07 04:18:45;;;;;;;21.00;6.03;;;;;;;8.08;89.36;102444.16;5042184;28;20120;-58
2022/10/07 04:21:11;;;;;;;20.50;6.55;;;;;;;8.11;89.38;102446.59;5041400;28;20476;-59
2022/10/07 04:23:38;;;;;;;23.08;6.50;;;;;;;8.08;89.10;102438.88;5039958;28;20048;-59
2022/10/07 04:26:11;;;;;;;17.83;6.40;;;;;;;8.08;89.36;102439.72;5047836;28;20083;-58
2022/10/07 04:28:37;;;;;;;22.63;6.55;;;;;;;8.10;89.47;102436.97;5047293;28;20024;-58
2022/10/07 04:31:04;;;;;;;19.17;6.03;;;;;;;8.09;89.58;102445.84;5044599;28;20026;-59
2022/10/07 04:33:30;;;;;;;23.92;6.82;;;;;;;8.05;88.94;102439.09;5041286;28;20408;-58
2022/10/07 04:35:55;;;;;;;21.48;6.45;;;;;;;8.08;89.54;102446.78;5035942;28;20022;-59
2022/10/07 04:38:20;;;;;;;20.70;6.15;;;;;;;8.03;89.75;102443.63;5038595;28;20029;-58
2022/10/07 04:40:48;;;;;;;20.58;6.40;;;;;;;8.04;89.56;102447.97;5038185;28;20041;-58
2022/10/07 04:43:22;;;;;;;21.25;7.00;;;;;;;8.06;89.61;102446.06;5035890;28;20112;-59
2022/10/07 04:46:02;;;;;;;21.65;6.60;;;;;;;8.08;88.97;102444.16;5039869;28;20026;-58
2022/10/07 04:48:28;;;;;;;23.77;6.38;;;;;;;8.03;89.18;102447.13;5037878;28;20024;-59
2022/10/07 04:50:55;;;;;;;20.92;5.95;;;;;;;8.03;88.96;102440.97;5037871;28;20373;-58
2022/10/07 04:53:20;;;;;;;20.65;6.43;;;;;;;7.99;89.07;102434.22;5039223;28;20496;-59
2022/10/07 04:55:48;;;;;;;19.67;6.57;;;;;;;7.97;89.48;102426.41;5041275;28;20162;-58
2022/10/07 04:58:14;;;;;;;19.30;6.32;;;;;;;7.94;89.18;102438.00;5038414;28;20025;-58
2022/10/07 05:00:45;;;;;;;21.20;6.10;;;;;;;7.94;89.68;102427.44;5035926;28;20026;-59
2022/10/07 05:03:12;;;;;;;22.75;6.03;;;;;;;7.89;89.68;102424.28;5041544;28;20037;-58
2022/10/07 05:05:46;;;;;;;21.50;6.43;;;;;;;7.94;89.70;102422.16;5035189;28;20025;-57
2022/10/07 05:08:14;;;;;;;18.23;6.40;;;;;;;7.89;90.00;102429.56;5038107;28;20025;-57
2022/10/07 05:10:40;;;;;;;18.67;6.60;;;;;;;7.90;89.57;102415.41;5038953;28;20492;-58
2022/10/07 05:13:08;;;;;;;18.88;6.65;;;;;;;7.84;89.56;102421.09;5038343;28;20018;-59
2022/10/07 05:15:33;;;;;;;22.38;6.70;;;;;;;7.85;89.75;102420.13;5034495;28;20477;-58
2022/10/07 05:17:58;;;;;;;23.75;6.53;;;;;;;7.86;90.03;102419.22;5036591;28;20033;-58
2022/10/07 05:20:25;;;;;;;19.42;6.53;;;;;;;7.84;89.97;102417.63;5034540;28;20116;-58
2022/10/07 05:22:50;;;;;;;23.00;7.03;;;;;;;7.82;89.94;102412.44;5032813;28;20497;-58
2022/10/07 05:25:15;;;;;;;25.95;6.93;;;;;;;7.83;90.34;102408.03;5034072;28;20028;-61
2022/10/07 05:27:40;;;;;;;22.83;6.95;;;;;;;7.79;90.04;102402.94;5037487;28;20036;-63
2022/10/07 05:30:07;;;;;;;19.20;6.25;;;;;;;7.80;90.32;102406.44;5039012;28;20034;-62
2022/10/07 05:32:33;;;;;;;23.95;6.38;;;;;;;7.74;90.74;102406.84;5036887;28;20116;-63
2022/10/07 05:34:58;;;;;;;20.48;6.20;;;;;;;7.78;90.69;102406.53;5038849;28;20116;-61
2022/10/07 05:37:23;;;;;;;20.40;6.60;;;;;;;7.80;90.57;102398.50;5033294;28;20037;-61
2022/10/07 05:39:49;;;;;;;22.77;6.03;;;;;;;7.75;90.61;102400.59;5031299;28;20489;-62
2022/10/07 05:42:14;;;;;;;17.25;5.75;;;;;;;7.75;90.83;102400.59;5040975;28;20029;-62
2022/10/07 05:44:39;;;;;;;22.77;5.72;;;;;;;7.72;90.64;102390.25;5036065;28;20032;-62
2022/10/07 05:47:05;;;;;;;21.95;6.00;;;;;;;7.79;90.78;102397.66;5033852;28;20060;-61
2022/10/07 05:49:30;;;;;;;20.50;6.15;;;;;;;7.81;90.69;102402.84;5036054;28;20108;-63
2022/10/07 05:51:55;;;;;;;18.85;5.50;;;;;;;7.80;90.75;102398.50;5036589;28;20033;-62
2022/10/07 05:54:21;;;;;;;17.60;5.55;;;;;;;7.79;90.72;102399.44;5038754;28;20021;-63
2022/10/07 05:56:46;;;;;;;20.23;5.35;;;;;;;7.82;90.82;102396.59;5035332;28;20373;-62
2022/10/07 05:59:12;;;;;;;19.52;5.50;;;;;;;7.83;90.79;102386.88;5038374;28;20040;-61
2022/10/07 06:01:37;;;;;;;15.23;5.35;;;;;;;7.80;90.74;102393.22;5046188;28;20029;-62
2022/10/07 06:04:05;;;;;;;25.20;5.95;;;;;;;7.81;90.85;102394.91;5031111;28;20041;-62
2022/10/07 06:06:30;;;;;;;20.73;5.40;;;;;;;7.79;90.75;102386.22;5030532;28;20384;-62
2022/10/07 06:13:06;;;;;;;23.08;5.88;;;;;;;7.79;90.99;102381.81;5033071;28;20041;-62
2022/10/07 06:14:28;;;;;;;21.05;5.60;;;;;;;7.80;90.65;102382.66;5033778;28;20436;-62
2022/10/07 06:16:53;;;;;;;18.20;5.13;;;;;;;7.81;90.91;102379.88;5032336;28;20030;-63
2022/10/07 06:19:21;;;;;;;19.02;4.97;;;;;;;7.82;91.09;102380.75;5031771;28;20473;-61
2022/10/07 06:21:47;;;;;;;18.05;5.40;;;;;;;7.85;90.98;102377.06;5030569;28;20034;-62
2022/10/07 06:24:12;;;;;;;18.90;5.05;;;;;;;7.88;91.10;102372.41;5034928;28;20111;-62
2022/10/07 06:26:37;;;;;;;20.15;5.20;;;;;;;7.90;90.65;102374.94;5031371;28;20071;-61
2022/10/07 06:29:03;;;;;;;18.73;4.75;;;;;;;7.93;90.43;102378.22;5031209;28;20034;-62
2022/10/07 06:31:28;;;;;;;18.23;4.75;;;;;;;7.96;91.04;102378.94;5031216;28;20033;-61
2022/10/07 06:33:54;;;;;;;17.63;4.40;;;;;;;7.98;90.86;102374.41;5033583;28;20041;-58
2022/10/07 06:36:19;;;;;;;18.95;5.00;;;;;;;7.98;91.04;102375.25;5037511;28;20042;-58
2022/10/07 06:38:49;;;;;;;22.58;5.00;;;;;;;8.02;91.03;102371.44;5034569;28;20084;-61
2022/10/07 06:41:15;;;;;;;19.15;4.72;;;;;;;8.04;91.23;102385.38;5034802;28;20029;-58
2022/10/07 06:43:41;;;;;;;17.63;4.95;;;;;;;8.13;90.83;102377.75;5034707;28;20500;-58
2022/10/07 06:46:08;;;;;;;21.63;5.38;;;;;;;8.15;90.48;102379.34;5033363;28;20021;-58
2022/10/07 06:48:34;;;;;;;16.65;5.00;;;;;;;8.20;90.73;102377.22;5036377;28;20119;-58
2022/10/07 06:51:04;;;;;;;19.90;4.80;;;;;;;8.25;90.22;102378.72;5041470;28;20116;-57
2022/10/07 06:53:30;;;;;;;20.98;5.32;;;;;;;8.31;90.52;102375.63;5037961;28;20700;-56
2022/10/07 06:56:00;;;;;;;20.92;4.53;;;;;;;8.36;90.26;102384.09;5035229;28;20105;-59
2022/10/07 06:58:26;;;;;;;19.00;4.88;;;;;;;8.40;90.11;102374.16;5033201;28;20440;-58
2022/10/07 07:00:52;;;;;;;17.23;4.45;;;;;;;8.42;90.44;102373.09;5038093;28;20025;-59
2022/10/07 07:03:18;;;;;;;18.92;4.88;;;;;;;8.52;90.58;102385.66;5045371;28;20481;-59
2022/10/07 07:05:44;;;;;;;21.25;4.85;;;;;;;8.56;90.16;102380.06;5039902;28;20038;-58
2022/10/07 07:08:09;;;;;;;19.98;4.88;;;;;;;8.62;89.82;102378.75;5034586;28;20033;-58
2022/10/07 07:10:42;;;;;;;21.55;4.85;;;;;;;8.65;89.41;102378.56;5034183;28;20473;-58
2022/10/07 07:13:08;;;;;;;19.63;4.95;;;;;;;8.69;89.37;102374.72;5036363;28;20034;-59
2022/10/07 07:15:35;;;;;;;19.02;4.78;;;;;;;8.72;89.75;102374.50;5030041;28;20456;-59
2022/10/07 07:18:01;;;;;;;20.10;4.60;;;;;;;8.77;89.64;102373.34;5033769;28;20030;-59
2022/10/07 07:20:34;;;;;;;20.48;5.32;;;;;;;8.82;89.73;102379.13;5040985;28;20451;-58
2022/10/07 07:23:11;;;;;;;17.17;4.80;;;;;;;8.88;89.01;102384.81;5031478;28;20435;-58
2022/10/07 07:25:39;;;;;;;18.05;4.63;;;;;;;8.90;88.67;102376.78;5043791;28;20075;-59
2022/10/07 07:28:06;;;;;;;16.25;4.70;;;;;;;8.96;89.01;102381.63;5041221;28;20038;-59
2022/10/07 07:30:32;;;;;;;15.05;4.40;;;;;;;9.03;88.29;102387.28;5046447;28;20029;-59
2022/10/07 07:32:57;;;;;;;17.67;4.75;;;;;;;9.09;88.61;102381.53;5029150;28;20037;-58
2022/10/07 07:35:26;;;;;;;18.60;4.72;;;;;;;9.12;88.64;102383.09;5037929;28;20104;-58
2022/10/07 07:37:52;;;;;;;17.77;4.93;;;;;;;9.22;88.21;102388.59;5030179;28;20037;-58
2022/10/07 07:40:18;;;;;;;13.38;4.60;;;;;;;9.28;87.76;102375.72;5034009;28;20103;-58
2022/10/07 07:42:47;;;;;;;15.90;5.00;;;;;;;9.33;88.39;102374.53;5033976;28;20038;-59
2022/10/07 07:45:13;;;;;;;14.95;4.45;;;;;;;9.38;87.77;102378.50;5035963;28;20048;-58
2022/10/07 07:47:38;;;;;;;17.13;4.70;;;;;;;9.44;88.10;102374.56;5045972;28;20033;-59
2022/10/07 07:50:05;;;;;;;15.45;4.68;;;;;;;9.45;87.50;102363.03;5035657;28;20048;-58
2022/10/07 07:52:31;;;;;;;17.27;4.85;;;;;;;9.59;87.53;102369.06;5037587;28;20033;-58
2022/10/07 07:54:57;;;;;;;18.42;5.18;;;;;;;9.62;87.01;102376.78;5035572;28;20048;-59
2022/10/07 07:57:26;;;;;;;17.38;4.70;;;;;;;9.65;87.24;102379.19;5041044;28;20400;-59
2022/10/07 07:59:54;;;;;;;20.55;5.05;;;;;;;9.68;87.33;102377.16;5049470;28;20067;-59
2022/10/07 08:02:20;;;;;;;17.85;4.70;;;;;;;9.75;86.65;102377.53;5052544;28;20033;-58
2022/10/07 08:04:45;;;;;;;15.85;5.07;;;;;;;9.80;87.05;102370.06;5039524;28;20037;-58
2022/10/07 08:07:11;;;;;;;19.35;5.15;;;;;;;9.87;86.93;102370.44;5037258;28;20035;-58
2022/10/07 08:09:40;;;;;;;18.17;5.15;;;;;;;9.91;87.20;102371.03;5050707;28;20032;-59
2022/10/07 08:12:06;;;;;;;19.48;5.07;;;;;;;9.98;86.17;102366.97;5035935;28;20033;-59
2022/10/07 08:14:31;;;;;;;19.23;5.32;;;;;;;10.05;85.18;102373.47;5044883;28;20056;-58
2022/10/07 08:16:58;;;;;;;23.58;4.90;;;;;;;10.13;86.12;102372.00;5050303;28;20032;-59
2022/10/07 08:19:24;;;;;;;21.52;5.22;;;;;;;10.18;85.33;102361.91;5038681;28;20029;-58
2022/10/07 08:21:51;;;;;;;18.40;4.80;;;;;;;10.22;85.10;102364.16;5039757;28;20115;-58
2022/10/07 08:24:16;;;;;;;16.60;5.00;;;;;;;10.29;85.35;102366.34;5053413;28;20024;-59
2022/10/07 08:26:42;;;;;;;18.42;4.88;;;;;;;10.35;85.28;102358.75;5049215;28;20608;-58
2022/10/07 08:29:07;;;;;;;17.52;4.65;;;;;;;10.39;84.96;102359.34;5053354;28;20021;-58
2022/10/07 08:31:32;;;;;;;18.67;4.68;;;;;;;10.44;85.44;102361.66;5050973;28;20716;-58
2022/10/07 08:34:00;;;;;;;15.90;4.70;;;;;;;10.54;84.07;102367.06;5041038;28;20065;-58
2022/10/07 08:36:27;;;;;;;19.95;4.78;;;;;;;10.60;83.84;102362.09;5052419;28;20025;-59
2022/10/07 08:38:53;;;;;;;18.98;5.07;;;;;;;10.71;84.71;102355.09;5052804;28;20705;-59
2022/10/07 08:41:33;;;;;;;21.05;4.65;;;;;;;10.76;83.95;102355.56;5053112;28;20029;-59
2022/10/07 08:44:16;;;;;;;16.65;4.43;;;;;;;10.83;84.50;102351.44;5032803;28;20499;-58
2022/10/07 08:47:07;;;;;;;17.85;4.40;;;;;;;10.90;83.73;102347.31;5033979;28;20034;-58
2022/10/07 08:50:03;;;;;;;15.43;4.72;;;;;;;11.00;83.55;102351.88;5039599;28;20044;-59
2022/10/07 08:53:00;;;;;;;19.48;4.72;;;;;;;11.10;82.72;102347.47;5039549;28;20067;-59
2022/10/07 08:55:28;;;;;;;20.42;4.95;;;;;;;11.22;83.18;102336.78;5031803;28;20469;-59
2022/10/07 08:58:08;;;;;;;14.98;3.97;;;;;;;11.26;81.94;102331.06;5040701;28;20115;-60
2022/10/07 09:01:14;;;;;;;18.60;4.32;;;;;;;11.33;83.36;102331.41;5052836;28;20032;-59
2022/10/07 09:03:50;;;;;;;18.55;4.40;;;;;;;11.38;82.87;102323.91;5037211;28;20045;-59
2022/10/07 09:06:26;;;;;;;14.82;3.80;;;;;;;11.39;81.97;102322.94;5032630;28;20563;-58
2022/10/07 09:08:56;;;;;;;15.88;3.97;;;;;;;11.42;82.02;102312.06;5038749;28;20037;-59
2022/10/07 09:11:24;;;;;;;16.38;3.83;;;;;;;11.49;81.84;102320.31;5032292;28;20037;-58
2022/10/07 09:13:56;;;;;;;15.27;4.13;;;;;;;11.58;82.23;102324.00;5032610;28;20052;-59
2022/10/07 09:16:29;;;;;;;19.10;3.92;;;;;;;11.67;82.38;102309.09;5032170;28;20037;-59
2022/10/07 09:18:58;;;;;;;15.57;4.05;;;;;;;11.73;81.86;102310.41;5034048;28;20041;-58
2022/10/07 09:21:38;;;;;;;15.27;3.90;;;;;;;11.88;80.21;102308.22;5049584;28;20052;-58
2022/10/07 09:24:17;;;;;;;18.67;4.05;;;;;;;11.97;79.50;102313.56;5052833;28;20045;-59
2022/10/07 09:26:42;;;;;;;15.23;3.75;;;;;;;12.06;80.13;102308.44;5052350;28;20107;-59
2022/10/07 09:29:09;;;;;;;19.15;4.40;;;;;;;12.15;79.57;102304.97;5037762;28;20604;-58
2022/10/07 09:31:35;;;;;;;16.27;4.05;;;;;;;12.22;80.09;102299.94;5048130;28;20477;-58
2022/10/07 09:34:00;;;;;;;16.92;3.90;;;;;;;12.30;79.47;102297.47;5048403;28;20086;-58
2022/10/07 09:36:25;;;;;;;16.40;3.80;;;;;;;12.31;80.02;102298.28;5048658;28;20021;-58
2022/10/07 09:38:52;;;;;;;16.35;3.70;;;;;;;12.35;78.31;102294.38;5046874;28;20053;-58
2022/10/07 09:41:31;;;;;;;17.63;4.25;;;;;;;12.46;78.03;102296.91;5040690;28;20033;-58
2022/10/07 09:44:12;;;;;;;16.35;4.53;;;;;;;12.58;77.35;102288.81;5040766;28;20032;-59
2022/10/07 09:46:51;;;;;;;17.02;4.13;;;;;;;12.71;77.52;102284.06;5036139;28;20575;-59
2022/10/07 09:49:28;;;;;;;16.85;3.63;;;;;;;12.72;76.12;102291.03;5051459;28;20416;-58
2022/10/07 09:52:02;;;;;;;15.35;3.40;;;;;;;12.76;75.64;102280.97;5051839;28;20031;-60
2022/10/07 09:54:29;;;;;;;16.88;3.75;;;;;;;12.84;75.57;102286.44;5037338;28;20083;-58
2022/10/07 09:56:57;;;;;;;16.67;4.00;;;;;;;12.90;75.51;102280.53;5031598;28;20026;-58
2022/10/07 09:59:26;;;;;;;16.63;3.90;;;;;;;13.02;73.78;102272.38;5045790;28;20025;-58
2022/10/07 10:01:54;;;;;;;13.52;3.50;;;;;;;13.04;74.20;102273.09;5051656;28;20060;-57
2022/10/07 10:04:36;;;;;;;16.75;4.13;;;;;;;13.13;74.88;102266.06;5035195;28;20064;-58
2022/10/07 10:07:04;;;;;;;20.20;3.83;;;;;;;13.15;73.20;102275.59;5030562;28;20045;-59
2022/10/07 10:09:32;;;;;;;20.05;4.22;;;;;;;13.21;73.11;102268.84;5030979;28;20461;-58
2022/10/07 10:12:10;;;;;;;17.17;4.25;;;;;;;13.25;72.54;102259.59;5031997;28;20392;-58
2022/10/07 10:14:50;;;;;;;14.80;3.65;;;;;;;13.34;72.16;102251.72;5031005;28;20079;-58
2022/10/07 10:17:29;;;;;;;18.02;3.65;;;;;;;13.42;71.60;102254.50;5034582;28;20025;-58
2022/10/07 10:20:15;;;;;;;19.10;3.97;;;;;;;13.44;73.10;102244.53;5044018;28;20041;-58
2022/10/07 10:22:40;;;;;;;13.85;3.22;;;;;;;13.54;70.63;102249.84;5051008;28;20119;-58
2022/10/07 10:28:08;;;;;;;12.95;3.30;;;;;;;13.57;70.86;102226.41;5038089;28;20095;-58
2022/10/07 10:30:43;;;;;;;18.65;3.65;;;;;;;13.69;71.06;102239.53;5037394;28;20021;-58
2022/10/07 10:33:20;;;;;;;16.63;3.60;;;;;;;13.76;70.13;102224.63;5051112;28;20028;-58
2022/10/07 10:36:04;;;;;;;15.32;3.55;;;;;;;13.85;70.46;102212.22;5036130;28;20033;-58
2022/10/07 10:38:49;;;;;;;12.52;3.58;;;;;;;13.96;71.58;102216.53;5045374;28;20043;-59
2022/10/07 10:41:30;;;;;;;17.98;3.80;;;;;;;14.07;70.64;102212.81;5043159;28;20075;-57
2022/10/07 10:44:24;;;;;;;15.27;3.25;;;;;;;14.08;69.28;102207.34;5034749;28;20374;-58
2022/10/07 10:47:17;;;;;;;16.52;3.30;;;;;;;14.11;69.55;102190.16;5030230;28;20041;-58
2022/10/07 10:49:53;;;;;;;14.63;3.13;;;;;;;14.23;68.95;102196.13;5030977;28;20465;-58
2022/10/07 10:52:49;;;;;;;12.77;3.30;;;;;;;14.27;70.09;102202.84;5038281;28;20056;-57
2022/10/07 10:55:58;;;;;;;13.43;3.50;;;;;;;14.28;68.78;102196.50;5048006;28;20064;-58
2022/10/07 10:58:35;;;;;;;19.60;3.90;;;;;;;14.33;66.08;102194.22;5030981;28;20362;-58
2022/10/07 11:01:28;;;;;;;11.57;3.08;;;;;;;14.32;67.01;102189.03;5033815;28;20361;-57
2022/10/07 11:04:34;;;;;;;15.18;3.13;;;;;;;14.41;67.26;102184.59;5030751;28;20393;-59
2022/10/07 11:07:05;;;;;;;13.05;3.53;;;;;;;14.34;65.49;102179.88;5036073;28;20075;-58
2022/10/07 11:09:38;;;;;;;14.32;3.53;;;;;;;14.38;67.70;102175.94;5043019;28;20033;-57
2022/10/07 11:12:16;;;;;;;13.65;3.20;;;;;;;14.43;67.59;102171.94;5030862;28;20049;-58
2022/10/07 11:14:52;;;;;;;15.05;3.70;;;;;;;14.51;65.78;102167.50;5030145;28;20061;-58
2022/10/07 11:17:24;;;;;;;21.77;3.30;;;;;;;14.58;65.13;102164.22;5030576;28;20041;-58
2022/10/07 11:20:03;;;;;;;16.95;3.22;;;;;;;14.63;65.97;102168.09;5034244;28;20493;-60
2022/10/07 11:22:38;;;;;;;14.10;3.30;;;;;;;14.76;64.63;102169.56;5035117;28;20052;-58
2022/10/07 11:25:27;;;;;;;16.42;3.60;;;;;;;14.80;64.13;102168.22;5034640;28;20087;-58
2022/10/07 11:27:59;;;;;;;14.13;3.38;;;;;;;14.79;64.17;102145.19;5037628;28;20500;-57
2022/10/07 11:30:36;;;;;;;15.57;3.30;;;;;;;14.86;65.17;102146.22;5043606;28;20075;-58
2022/10/07 11:33:10;;;;;;;13.25;3.47;;;;;;;14.91;64.02;102143.94;5034690;28;20026;-58
2022/10/07 11:35:52;;;;;;;12.10;2.85;;;;;;;14.95;66.44;102131.09;5039060;28;20357;-58
2022/10/07 11:38:32;;;;;;;16.23;4.20;;;;;;;14.98;64.77;102121.94;5051341;28;20033;-58
2022/10/07 11:41:03;;;;;;;11.30;3.25;;;;;;;15.03;63.65;102117.81;5033853;28;20041;-59
2022/10/07 11:43:44;;;;;;;14.68;3.25;;;;;;;15.06;63.92;102119.31;5034630;28;20400;-58
2022/10/07 11:46:32;;;;;;;14.07;3.20;;;;;;;15.16;64.08;102106.66;5036156;28;20017;-58